sensor_id;sensor_type;location;lat;lon;timestamp;temperature;humidity
1778;DHT22;886;50.082;8.222;2022-07-06T00:02:05;20.10;76.90
1778;DHT22;886;50.082;8.222;2022-07-06T00:04:32;20.10;76.80
1778;DHT22;886;50.082;8.222;2022-07-06T00:07:00;20.10;76.80
1778;DHT22;886;50.082;8.222;2022-07-06T00:09:27;20.00;77.10
1778;DHT22;886;50.082;8.222;2022-07-06T00:11:54;20.00;77.20
1778;DHT22;886;50.082;8.222;2022-07-06T00:14:22;19.90;77.30
1778;DHT22;886;50.082;8.222;2022-07-06T00:16:49;19.80;77.70
1778;DHT22;886;50.082;8.222;2022-07-06T00:19:16;19.80;77.70
1778;DHT22;886;50.082;8.222;2022-07-06T00:21:43;19.80;77.90
1778;DHT22;886;50.082;8.222;2022-07-06T00:24:11;19.70;77.90
1778;DHT22;886;50.082;8.222;2022-07-06T00:26:38;19.70;78.10
1778;DHT22;886;50.082;8.222;2022-07-06T00:29:05;19.60;78.20
1778;DHT22;886;50.082;8.222;2022-07-06T00:31:33;19.60;78.50
1778;DHT22;886;50.082;8.222;2022-07-06T00:34:01;19.60;78.40
1778;DHT22;886;50.082;8.222;2022-07-06T00:36:28;19.60;78.20
1778;DHT22;886;50.082;8.222;2022-07-06T00:38:55;19.60;78.10
1778;DHT22;886;50.082;8.222;2022-07-06T00:41:22;19.60;78.10
1778;DHT22;886;50.082;8.222;2022-07-06T00:43:50;19.60;77.90
1778;DHT22;886;50.082;8.222;2022-07-06T00:46:26;19.50;77.90
1778;DHT22;886;50.082;8.222;2022-07-06T00:48:56;19.50;77.90
1778;DHT22;886;50.082;8.222;2022-07-06T00:51:26;19.50;78.00
1778;DHT22;886;50.082;8.222;2022-07-06T00:53:58;19.50;77.90
1778;DHT22;886;50.082;8.222;2022-07-06T00:56:29;19.40;77.90
1778;DHT22;886;50.082;8.222;2022-07-06T00:58:58;19.40;77.90
1778;DHT22;886;50.082;8.222;2022-07-06T01:01:25;19.40;77.60
1778;DHT22;886;50.082;8.222;2022-07-06T01:03:57;19.40;77.50
1778;DHT22;886;50.082;8.222;2022-07-06T01:06:24;19.40;77.70
1778;DHT22;886;50.082;8.222;2022-07-06T01:08:52;19.40;77.50
1778;DHT22;886;50.082;8.222;2022-07-06T01:11:20;19.30;77.50
1778;DHT22;886;50.082;8.222;2022-07-06T01:13:47;19.30;77.70
1778;DHT22;886;50.082;8.222;2022-07-06T01:16:14;19.20;77.60
1778;DHT22;886;50.082;8.222;2022-07-06T01:18:45;19.20;77.70
1778;DHT22;886;50.082;8.222;2022-07-06T01:21:14;19.20;77.60
1778;DHT22;886;50.082;8.222;2022-07-06T01:23:42;19.10;77.70
1778;DHT22;886;50.082;8.222;2022-07-06T01:26:12;19.10;77.50
1778;DHT22;886;50.082;8.222;2022-07-06T01:28:40;19.10;77.20
1778;DHT22;886;50.082;8.222;2022-07-06T01:31:14;19.00;77.60
1778;DHT22;886;50.082;8.222;2022-07-06T01:33:42;19.00;77.60
1778;DHT22;886;50.082;8.222;2022-07-06T01:36:10;19.00;77.60
1778;DHT22;886;50.082;8.222;2022-07-06T01:38:45;19.00;77.40
1778;DHT22;886;50.082;8.222;2022-07-06T01:41:13;18.90;77.20
1778;DHT22;886;50.082;8.222;2022-07-06T01:43:40;18.90;77.20
1778;DHT22;886;50.082;8.222;2022-07-06T01:46:11;18.90;77.10
1778;DHT22;886;50.082;8.222;2022-07-06T01:48:38;18.90;77.10
1778;DHT22;886;50.082;8.222;2022-07-06T01:51:05;18.90;77.20
1778;DHT22;886;50.082;8.222;2022-07-06T01:53:33;18.80;77.20
1778;DHT22;886;50.082;8.222;2022-07-06T01:56:01;18.90;77.30
1778;DHT22;886;50.082;8.222;2022-07-06T01:58:28;18.80;77.30
1778;DHT22;886;50.082;8.222;2022-07-06T02:00:55;18.70;77.50
1778;DHT22;886;50.082;8.222;2022-07-06T02:03:23;18.70;77.70
1778;DHT22;886;50.082;8.222;2022-07-06T02:05:50;18.70;77.80
1778;DHT22;886;50.082;8.222;2022-07-06T02:08:18;18.60;77.90
1778;DHT22;886;50.082;8.222;2022-07-06T02:10:45;18.50;78.20
1778;DHT22;886;50.082;8.222;2022-07-06T02:13:14;18.50;78.30
1778;DHT22;886;50.082;8.222;2022-07-06T02:15:41;18.40;78.70
1778;DHT22;886;50.082;8.222;2022-07-06T02:18:08;18.40;78.80
1778;DHT22;886;50.082;8.222;2022-07-06T02:20:35;18.40;79.00
1778;DHT22;886;50.082;8.222;2022-07-06T02:23:02;18.30;79.10
1778;DHT22;886;50.082;8.222;2022-07-06T02:25:30;18.20;79.30
1778;DHT22;886;50.082;8.222;2022-07-06T02:27:57;18.20;79.30
1778;DHT22;886;50.082;8.222;2022-07-06T02:30:25;18.20;79.40
1778;DHT22;886;50.082;8.222;2022-07-06T02:32:53;18.20;79.60
1778;DHT22;886;50.082;8.222;2022-07-06T02:35:20;18.20;79.60
1778;DHT22;886;50.082;8.222;2022-07-06T02:37:47;18.20;79.70
1778;DHT22;886;50.082;8.222;2022-07-06T02:40:14;18.20;79.80
1778;DHT22;886;50.082;8.222;2022-07-06T02:42:41;18.10;80.00
1778;DHT22;886;50.082;8.222;2022-07-06T02:45:09;18.00;80.20
1778;DHT22;886;50.082;8.222;2022-07-06T02:47:38;18.00;80.50
1778;DHT22;886;50.082;8.222;2022-07-06T02:50:06;18.00;80.70
1778;DHT22;886;50.082;8.222;2022-07-06T02:52:34;17.90;81.00
1778;DHT22;886;50.082;8.222;2022-07-06T02:55:07;17.90;81.00
1778;DHT22;886;50.082;8.222;2022-07-06T02:57:34;17.80;81.40
1778;DHT22;886;50.082;8.222;2022-07-06T03:00:02;17.80;81.70
1778;DHT22;886;50.082;8.222;2022-07-06T03:02:30;17.80;82.00
1778;DHT22;886;50.082;8.222;2022-07-06T03:04:59;17.70;82.20
1778;DHT22;886;50.082;8.222;2022-07-06T03:07:26;17.70;82.50
1778;DHT22;886;50.082;8.222;2022-07-06T03:09:53;17.70;82.80
1778;DHT22;886;50.082;8.222;2022-07-06T03:12:20;17.60;82.90
1778;DHT22;886;50.082;8.222;2022-07-06T03:14:47;17.70;82.90
1778;DHT22;886;50.082;8.222;2022-07-06T03:17:15;17.60;83.00
1778;DHT22;886;50.082;8.222;2022-07-06T03:19:42;17.50;83.30
1778;DHT22;886;50.082;8.222;2022-07-06T03:22:10;17.60;83.50
1778;DHT22;886;50.082;8.222;2022-07-06T03:24:37;17.50;83.80
1778;DHT22;886;50.082;8.222;2022-07-06T03:27:05;17.50;83.90
1778;DHT22;886;50.082;8.222;2022-07-06T03:29:32;17.50;83.90
1778;DHT22;886;50.082;8.222;2022-07-06T03:31:59;17.50;84.00
1778;DHT22;886;50.082;8.222;2022-07-06T03:34:26;17.50;84.20
1778;DHT22;886;50.082;8.222;2022-07-06T03:36:53;17.40;84.50
1778;DHT22;886;50.082;8.222;2022-07-06T03:39:21;17.40;84.70
1778;DHT22;886;50.082;8.222;2022-07-06T03:41:48;17.40;84.90
1778;DHT22;886;50.082;8.222;2022-07-06T03:44:15;17.30;85.10
1778;DHT22;886;50.082;8.222;2022-07-06T03:46:42;17.30;85.30
1778;DHT22;886;50.082;8.222;2022-07-06T03:49:10;17.30;85.50
1778;DHT22;886;50.082;8.222;2022-07-06T03:51:37;17.30;85.70
1778;DHT22;886;50.082;8.222;2022-07-06T03:54:04;17.30;85.80
1778;DHT22;886;50.082;8.222;2022-07-06T03:56:32;17.20;85.90
1778;DHT22;886;50.082;8.222;2022-07-06T03:59:01;17.20;86.10
1778;DHT22;886;50.082;8.222;2022-07-06T04:01:29;17.20;86.10
1778;DHT22;886;50.082;8.222;2022-07-06T04:03:57;17.20;86.10
1778;DHT22;886;50.082;8.222;2022-07-06T04:06:25;17.20;86.30
1778;DHT22;886;50.082;8.222;2022-07-06T04:08:52;17.20;86.50
1778;DHT22;886;50.082;8.222;2022-07-06T04:11:19;17.10;86.50
1778;DHT22;886;50.082;8.222;2022-07-06T04:13:48;17.10;86.80
1778;DHT22;886;50.082;8.222;2022-07-06T04:16:15;17.00;87.00
1778;DHT22;886;50.082;8.222;2022-07-06T04:18:42;17.00;86.80
1778;DHT22;886;50.082;8.222;2022-07-06T04:21:09;17.00;86.80
1778;DHT22;886;50.082;8.222;2022-07-06T04:23:36;17.00;86.90
1778;DHT22;886;50.082;8.222;2022-07-06T04:26:03;17.00;86.50
1778;DHT22;886;50.082;8.222;2022-07-06T04:28:30;16.90;86.50
1778;DHT22;886;50.082;8.222;2022-07-06T04:30:59;16.90;86.70
1778;DHT22;886;50.082;8.222;2022-07-06T04:33:29;16.90;86.50
1778;DHT22;886;50.082;8.222;2022-07-06T04:35:56;16.90;86.60
1778;DHT22;886;50.082;8.222;2022-07-06T04:38:23;16.90;86.00
1778;DHT22;886;50.082;8.222;2022-07-06T04:40:51;16.90;85.70
1778;DHT22;886;50.082;8.222;2022-07-06T04:43:18;16.90;86.00
1778;DHT22;886;50.082;8.222;2022-07-06T04:45:45;17.00;85.80
1778;DHT22;886;50.082;8.222;2022-07-06T04:48:13;17.00;85.40
1778;DHT22;886;50.082;8.222;2022-07-06T04:50:40;17.00;86.10
1778;DHT22;886;50.082;8.222;2022-07-06T04:53:08;17.00;85.10
1778;DHT22;886;50.082;8.222;2022-07-06T04:55:35;17.00;85.10
1778;DHT22;886;50.082;8.222;2022-07-06T04:58:02;17.00;85.30
1778;DHT22;886;50.082;8.222;2022-07-06T05:00:29;17.00;85.40
1778;DHT22;886;50.082;8.222;2022-07-06T05:02:56;16.90;85.30
1778;DHT22;886;50.082;8.222;2022-07-06T05:05:40;16.80;85.50
1778;DHT22;886;50.082;8.222;2022-07-06T05:08:10;16.80;85.80
1778;DHT22;886;50.082;8.222;2022-07-06T05:10:37;16.90;85.90
1778;DHT22;886;50.082;8.222;2022-07-06T05:13:04;16.90;85.50
1778;DHT22;886;50.082;8.222;2022-07-06T05:15:31;16.90;85.30
1778;DHT22;886;50.082;8.222;2022-07-06T05:17:58;16.90;85.40
1778;DHT22;886;50.082;8.222;2022-07-06T05:20:25;16.90;85.20
1778;DHT22;886;50.082;8.222;2022-07-06T05:22:54;17.00;85.20
1778;DHT22;886;50.082;8.222;2022-07-06T05:25:21;17.10;85.00
1778;DHT22;886;50.082;8.222;2022-07-06T05:27:48;17.10;84.80
1778;DHT22;886;50.082;8.222;2022-07-06T05:30:16;17.20;84.50
1778;DHT22;886;50.082;8.222;2022-07-06T05:32:43;17.20;84.50
1778;DHT22;886;50.082;8.222;2022-07-06T05:35:10;17.20;84.50
1778;DHT22;886;50.082;8.222;2022-07-06T05:37:59;17.20;84.30
1778;DHT22;886;50.082;8.222;2022-07-06T05:40:26;17.10;84.30
1778;DHT22;886;50.082;8.222;2022-07-06T05:42:53;17.10;84.10
1778;DHT22;886;50.082;8.222;2022-07-06T05:45:20;17.10;84.80
1778;DHT22;886;50.082;8.222;2022-07-06T05:47:49;17.20;84.00
1778;DHT22;886;50.082;8.222;2022-07-06T05:50:52;17.20;83.70
1778;DHT22;886;50.082;8.222;2022-07-06T05:53:20;17.20;83.60
1778;DHT22;886;50.082;8.222;2022-07-06T05:55:47;17.20;84.20
1778;DHT22;886;50.082;8.222;2022-07-06T05:58:15;17.20;84.20
1778;DHT22;886;50.082;8.222;2022-07-06T06:00:42;17.20;84.20
1778;DHT22;886;50.082;8.222;2022-07-06T06:03:10;17.30;84.00
1778;DHT22;886;50.082;8.222;2022-07-06T06:05:37;17.40;83.50
1778;DHT22;886;50.082;8.222;2022-07-06T06:08:07;17.40;82.70
1778;DHT22;886;50.082;8.222;2022-07-06T06:10:36;17.50;82.70
1778;DHT22;886;50.082;8.222;2022-07-06T06:13:03;17.60;82.30
1778;DHT22;886;50.082;8.222;2022-07-06T06:15:30;17.70;82.30
1778;DHT22;886;50.082;8.222;2022-07-06T06:17:57;17.90;81.30
1778;DHT22;886;50.082;8.222;2022-07-06T06:20:24;18.10;80.20
1778;DHT22;886;50.082;8.222;2022-07-06T06:22:53;18.20;79.70
1778;DHT22;886;50.082;8.222;2022-07-06T06:25:27;18.40;78.80
1778;DHT22;886;50.082;8.222;2022-07-06T06:27:57;18.60;77.80
1778;DHT22;886;50.082;8.222;2022-07-06T06:30:25;18.90;77.40
1778;DHT22;886;50.082;8.222;2022-07-06T06:33:02;19.10;76.90
1778;DHT22;886;50.082;8.222;2022-07-06T06:35:33;19.20;75.70
1778;DHT22;886;50.082;8.222;2022-07-06T06:38:01;19.40;74.50
1778;DHT22;886;50.082;8.222;2022-07-06T06:40:28;19.40;74.40
1778;DHT22;886;50.082;8.222;2022-07-06T06:42:56;19.30;74.60
1778;DHT22;886;50.082;8.222;2022-07-06T06:45:23;19.10;74.60
1778;DHT22;886;50.082;8.222;2022-07-06T06:47:51;18.90;75.20
1778;DHT22;886;50.082;8.222;2022-07-06T06:50:21;18.80;75.30
1778;DHT22;886;50.082;8.222;2022-07-06T06:52:50;18.90;75.10
1778;DHT22;886;50.082;8.222;2022-07-06T06:55:17;18.80;75.00
1778;DHT22;886;50.082;8.222;2022-07-06T06:57:47;18.80;73.60
1778;DHT22;886;50.082;8.222;2022-07-06T07:00:16;18.80;74.20
1778;DHT22;886;50.082;8.222;2022-07-06T07:02:44;18.90;74.40
1778;DHT22;886;50.082;8.222;2022-07-06T07:05:12;19.00;74.40
1778;DHT22;886;50.082;8.222;2022-07-06T07:07:41;19.30;74.30
1778;DHT22;886;50.082;8.222;2022-07-06T07:10:09;19.60;74.20
1778;DHT22;886;50.082;8.222;2022-07-06T07:12:43;20.00;72.10
1778;DHT22;886;50.082;8.222;2022-07-06T07:15:11;20.70;70.90
1778;DHT22;886;50.082;8.222;2022-07-06T07:17:39;21.50;69.30
1778;DHT22;886;50.082;8.222;2022-07-06T07:20:08;22.20;67.60
1778;DHT22;886;50.082;8.222;2022-07-06T07:22:47;22.60;66.20
1778;DHT22;886;50.082;8.222;2022-07-06T07:25:15;22.80;64.10
1778;DHT22;886;50.082;8.222;2022-07-06T07:27:47;22.90;63.20
1778;DHT22;886;50.082;8.222;2022-07-06T07:30:14;23.00;63.20
1778;DHT22;886;50.082;8.222;2022-07-06T07:32:43;22.90;63.10
1778;DHT22;886;50.082;8.222;2022-07-06T07:35:13;22.50;63.00
1778;DHT22;886;50.082;8.222;2022-07-06T07:37:43;21.90;64.00
1778;DHT22;886;50.082;8.222;2022-07-06T07:40:11;21.50;65.00
1778;DHT22;886;50.082;8.222;2022-07-06T07:42:38;21.20;66.20
1778;DHT22;886;50.082;8.222;2022-07-06T07:45:08;20.80;66.10
1778;DHT22;886;50.082;8.222;2022-07-06T07:47:43;20.70;66.80
1778;DHT22;886;50.082;8.222;2022-07-06T07:50:21;20.60;66.90
1778;DHT22;886;50.082;8.222;2022-07-06T07:52:51;20.50;66.30
1778;DHT22;886;50.082;8.222;2022-07-06T07:55:24;20.30;66.70
1778;DHT22;886;50.082;8.222;2022-07-06T07:58:14;20.20;67.10
1778;DHT22;886;50.082;8.222;2022-07-06T08:00:41;20.10;67.20
1778;DHT22;886;50.082;8.222;2022-07-06T08:03:09;20.10;69.30
1778;DHT22;886;50.082;8.222;2022-07-06T08:05:37;20.10;69.30
1778;DHT22;886;50.082;8.222;2022-07-06T08:08:06;20.10;69.40
1778;DHT22;886;50.082;8.222;2022-07-06T08:10:33;20.00;69.00
1778;DHT22;886;50.082;8.222;2022-07-06T08:13:27;19.90;68.40
1778;DHT22;886;50.082;8.222;2022-07-06T08:15:54;19.80;68.20
1778;DHT22;886;50.082;8.222;2022-07-06T08:18:22;19.70;68.10
1778;DHT22;886;50.082;8.222;2022-07-06T08:20:53;19.80;67.90
1778;DHT22;886;50.082;8.222;2022-07-06T08:23:46;19.80;67.20
1778;DHT22;886;50.082;8.222;2022-07-06T08:26:16;20.00;66.70
1778;DHT22;886;50.082;8.222;2022-07-06T08:28:43;20.30;66.50
1778;DHT22;886;50.082;8.222;2022-07-06T08:31:13;20.40;65.60
1778;DHT22;886;50.082;8.222;2022-07-06T08:34:02;20.40;65.80
1778;DHT22;886;50.082;8.222;2022-07-06T08:36:30;20.60;65.30
1778;DHT22;886;50.082;8.222;2022-07-06T08:38:58;20.60;65.40
1778;DHT22;886;50.082;8.222;2022-07-06T08:41:26;20.60;66.40
1778;DHT22;886;50.082;8.222;2022-07-06T08:43:55;20.60;67.00
1778;DHT22;886;50.082;8.222;2022-07-06T08:46:29;20.60;66.70
1778;DHT22;886;50.082;8.222;2022-07-06T08:48:59;20.40;65.40
1778;DHT22;886;50.082;8.222;2022-07-06T08:51:35;20.40;66.50
1778;DHT22;886;50.082;8.222;2022-07-06T08:54:07;20.40;64.40
1778;DHT22;886;50.082;8.222;2022-07-06T08:56:34;20.30;64.90
1778;DHT22;886;50.082;8.222;2022-07-06T08:59:02;20.30;64.70
1778;DHT22;886;50.082;8.222;2022-07-06T09:01:29;20.30;63.80
1778;DHT22;886;50.082;8.222;2022-07-06T09:03:57;20.20;64.90
1778;DHT22;886;50.082;8.222;2022-07-06T09:06:27;20.20;65.40
1778;DHT22;886;50.082;8.222;2022-07-06T09:08:59;20.20;65.40
1778;DHT22;886;50.082;8.222;2022-07-06T09:11:28;20.20;64.90
1778;DHT22;886;50.082;8.222;2022-07-06T09:13:55;20.20;66.40
1778;DHT22;886;50.082;8.222;2022-07-06T09:16:29;20.30;66.30
1778;DHT22;886;50.082;8.222;2022-07-06T09:19:12;20.30;66.40
1778;DHT22;886;50.082;8.222;2022-07-06T09:21:40;20.40;65.30
1778;DHT22;886;50.082;8.222;2022-07-06T09:24:11;20.60;63.70
1778;DHT22;886;50.082;8.222;2022-07-06T09:26:39;20.60;63.80
1778;DHT22;886;50.082;8.222;2022-07-06T09:29:08;20.80;63.90
1778;DHT22;886;50.082;8.222;2022-07-06T09:31:39;21.10;64.10
1778;DHT22;886;50.082;8.222;2022-07-06T09:34:12;21.40;62.70
1778;DHT22;886;50.082;8.222;2022-07-06T09:36:44;21.50;62.80
1778;DHT22;886;50.082;8.222;2022-07-06T09:39:22;21.50;63.00
1778;DHT22;886;50.082;8.222;2022-07-06T09:41:52;21.40;62.80
1778;DHT22;886;50.082;8.222;2022-07-06T09:44:22;21.30;62.80
1778;DHT22;886;50.082;8.222;2022-07-06T09:46:51;21.10;62.50
1778;DHT22;886;50.082;8.222;2022-07-06T09:49:19;21.00;63.10
1778;DHT22;886;50.082;8.222;2022-07-06T09:51:49;20.80;63.40
1778;DHT22;886;50.082;8.222;2022-07-06T09:54:19;20.80;63.60
1778;DHT22;886;50.082;8.222;2022-07-06T09:56:48;20.90;62.90
1778;DHT22;886;50.082;8.222;2022-07-06T09:59:19;20.80;62.40
1778;DHT22;886;50.082;8.222;2022-07-06T10:01:50;20.80;62.50
1778;DHT22;886;50.082;8.222;2022-07-06T10:04:19;20.70;63.40
1778;DHT22;886;50.082;8.222;2022-07-06T10:06:50;20.70;63.40
1778;DHT22;886;50.082;8.222;2022-07-06T10:09:21;20.80;63.00
1778;DHT22;886;50.082;8.222;2022-07-06T10:11:50;20.90;63.60
1778;DHT22;886;50.082;8.222;2022-07-06T10:14:21;21.00;63.90
1778;DHT22;886;50.082;8.222;2022-07-06T10:16:50;21.00;63.50
1778;DHT22;886;50.082;8.222;2022-07-06T10:19:19;21.10;62.60
1778;DHT22;886;50.082;8.222;2022-07-06T10:21:48;21.20;62.20
1778;DHT22;886;50.082;8.222;2022-07-06T10:24:20;21.20;63.50
1778;DHT22;886;50.082;8.222;2022-07-06T10:26:48;21.30;62.60
1778;DHT22;886;50.082;8.222;2022-07-06T10:29:16;21.30;61.70
1778;DHT22;886;50.082;8.222;2022-07-06T10:31:45;21.30;62.20
1778;DHT22;886;50.082;8.222;2022-07-06T10:34:14;21.30;61.90
1778;DHT22;886;50.082;8.222;2022-07-06T10:36:48;21.30;61.50
1778;DHT22;886;50.082;8.222;2022-07-06T10:39:36;21.30;61.20
1778;DHT22;886;50.082;8.222;2022-07-06T10:42:41;21.30;61.20
1778;DHT22;886;50.082;8.222;2022-07-06T10:45:12;21.30;60.40
1778;DHT22;886;50.082;8.222;2022-07-06T10:47:41;21.40;61.20
1778;DHT22;886;50.082;8.222;2022-07-06T10:50:09;21.40;61.90
1778;DHT22;886;50.082;8.222;2022-07-06T10:52:49;21.50;62.00
1778;DHT22;886;50.082;8.222;2022-07-06T10:55:33;21.60;62.70
1778;DHT22;886;50.082;8.222;2022-07-06T10:58:02;21.60;62.70
1778;DHT22;886;50.082;8.222;2022-07-06T11:00:48;21.70;61.90
1778;DHT22;886;50.082;8.222;2022-07-06T11:03:33;21.70;59.90
1778;DHT22;886;50.082;8.222;2022-07-06T11:06:04;21.50;60.90
1778;DHT22;886;50.082;8.222;2022-07-06T11:08:49;21.40;60.40
1778;DHT22;886;50.082;8.222;2022-07-06T11:11:21;21.50;62.00
1778;DHT22;886;50.082;8.222;2022-07-06T11:13:52;21.50;62.50
1778;DHT22;886;50.082;8.222;2022-07-06T11:16:25;21.60;62.30
1778;DHT22;886;50.082;8.222;2022-07-06T11:19:05;21.60;62.00
1778;DHT22;886;50.082;8.222;2022-07-06T11:21:40;21.60;60.60
1778;DHT22;886;50.082;8.222;2022-07-06T11:24:12;21.60;61.50
1778;DHT22;886;50.082;8.222;2022-07-06T11:26:44;21.50;60.60
1778;DHT22;886;50.082;8.222;2022-07-06T11:29:14;21.50;60.80
1778;DHT22;886;50.082;8.222;2022-07-06T11:31:43;21.50;62.00
1778;DHT22;886;50.082;8.222;2022-07-06T11:34:13;21.50;61.40
1778;DHT22;886;50.082;8.222;2022-07-06T11:36:43;21.50;61.60
1778;DHT22;886;50.082;8.222;2022-07-06T11:39:12;21.50;61.10
1778;DHT22;886;50.082;8.222;2022-07-06T11:41:41;21.50;61.40
1778;DHT22;886;50.082;8.222;2022-07-06T11:44:19;21.60;61.10
1778;DHT22;886;50.082;8.222;2022-07-06T11:46:47;21.60;60.50
1778;DHT22;886;50.082;8.222;2022-07-06T11:49:14;21.60;60.50
1778;DHT22;886;50.082;8.222;2022-07-06T11:51:42;21.60;61.00
1778;DHT22;886;50.082;8.222;2022-07-06T11:54:12;21.70;60.60
1778;DHT22;886;50.082;8.222;2022-07-06T11:56:50;21.80;60.60
1778;DHT22;886;50.082;8.222;2022-07-06T11:59:21;21.90;60.20
1778;DHT22;886;50.082;8.222;2022-07-06T12:01:49;21.80;60.30
1778;DHT22;886;50.082;8.222;2022-07-06T12:04:24;21.80;60.00
1778;DHT22;886;50.082;8.222;2022-07-06T12:06:52;21.70;59.90
1778;DHT22;886;50.082;8.222;2022-07-06T12:09:26;21.70;60.60
1778;DHT22;886;50.082;8.222;2022-07-06T12:11:58;21.80;60.60
1778;DHT22;886;50.082;8.222;2022-07-06T12:14:33;21.80;59.70
1778;DHT22;886;50.082;8.222;2022-07-06T12:17:04;21.90;60.50
1778;DHT22;886;50.082;8.222;2022-07-06T12:19:33;21.90;60.20
1778;DHT22;886;50.082;8.222;2022-07-06T12:22:01;22.00;59.80
1778;DHT22;886;50.082;8.222;2022-07-06T12:24:31;22.00;59.40
1778;DHT22;886;50.082;8.222;2022-07-06T12:27:10;21.80;60.40
1778;DHT22;886;50.082;8.222;2022-07-06T12:29:42;21.70;61.20
1778;DHT22;886;50.082;8.222;2022-07-06T12:32:17;21.70;61.90
1778;DHT22;886;50.082;8.222;2022-07-06T12:34:45;21.60;61.60
1778;DHT22;886;50.082;8.222;2022-07-06T12:37:16;21.60;62.00
1778;DHT22;886;50.082;8.222;2022-07-06T12:39:45;21.50;61.10
1778;DHT22;886;50.082;8.222;2022-07-06T12:42:17;21.50;62.10
1778;DHT22;886;50.082;8.222;2022-07-06T12:44:48;21.50;61.10
1778;DHT22;886;50.082;8.222;2022-07-06T12:47:17;21.50;60.80
1778;DHT22;886;50.082;8.222;2022-07-06T12:49:45;21.40;61.60
1778;DHT22;886;50.082;8.222;2022-07-06T12:52:14;21.40;60.80
1778;DHT22;886;50.082;8.222;2022-07-06T12:54:43;21.50;61.90
1778;DHT22;886;50.082;8.222;2022-07-06T12:57:12;21.60;61.50
1778;DHT22;886;50.082;8.222;2022-07-06T12:59:44;21.80;61.90
1778;DHT22;886;50.082;8.222;2022-07-06T13:02:26;21.80;61.80
1778;DHT22;886;50.082;8.222;2022-07-06T13:05:18;21.90;61.80
1778;DHT22;886;50.082;8.222;2022-07-06T13:07:55;21.90;61.30
1778;DHT22;886;50.082;8.222;2022-07-06T13:10:29;22.00;60.80
1778;DHT22;886;50.082;8.222;2022-07-06T13:12:57;21.90;60.40
1778;DHT22;886;50.082;8.222;2022-07-06T13:15:27;21.90;60.60
1778;DHT22;886;50.082;8.222;2022-07-06T13:17:54;22.00;61.20
1778;DHT22;886;50.082;8.222;2022-07-06T13:20:21;21.90;61.00
1778;DHT22;886;50.082;8.222;2022-07-06T13:22:49;22.00;61.70
1778;DHT22;886;50.082;8.222;2022-07-06T13:25:17;21.90;60.30
1778;DHT22;886;50.082;8.222;2022-07-06T13:27:44;21.90;61.00
1778;DHT22;886;50.082;8.222;2022-07-06T13:30:12;21.90;61.60
1778;DHT22;886;50.082;8.222;2022-07-06T13:32:46;21.90;60.90
1778;DHT22;886;50.082;8.222;2022-07-06T13:35:13;21.90;59.70
1778;DHT22;886;50.082;8.222;2022-07-06T13:37:41;21.80;58.60
1778;DHT22;886;50.082;8.222;2022-07-06T13:40:17;21.70;60.30
1778;DHT22;886;50.082;8.222;2022-07-06T13:42:44;21.70;60.00
1778;DHT22;886;50.082;8.222;2022-07-06T13:45:12;21.70;59.60
1778;DHT22;886;50.082;8.222;2022-07-06T13:47:40;21.70;59.80
1778;DHT22;886;50.082;8.222;2022-07-06T13:50:08;21.80;60.00
1778;DHT22;886;50.082;8.222;2022-07-06T13:52:35;21.90;59.90
1778;DHT22;886;50.082;8.222;2022-07-06T13:55:03;21.90;61.20
1778;DHT22;886;50.082;8.222;2022-07-06T13:57:30;22.00;59.20
1778;DHT22;886;50.082;8.222;2022-07-06T14:00:01;22.10;58.60
1778;DHT22;886;50.082;8.222;2022-07-06T14:02:31;22.10;58.30
1778;DHT22;886;50.082;8.222;2022-07-06T14:04:59;22.10;59.80
1778;DHT22;886;50.082;8.222;2022-07-06T14:07:27;22.10;58.50
1778;DHT22;886;50.082;8.222;2022-07-06T14:09:54;22.10;58.00
1778;DHT22;886;50.082;8.222;2022-07-06T14:12:24;22.10;58.30
1778;DHT22;886;50.082;8.222;2022-07-06T14:14:52;22.10;59.80
1778;DHT22;886;50.082;8.222;2022-07-06T14:17:19;22.10;59.20
1778;DHT22;886;50.082;8.222;2022-07-06T14:19:47;22.10;58.40
1778;DHT22;886;50.082;8.222;2022-07-06T14:22:19;22.00;57.90
1778;DHT22;886;50.082;8.222;2022-07-06T14:24:46;22.00;57.70
1778;DHT22;886;50.082;8.222;2022-07-06T14:27:16;22.00;58.60
1778;DHT22;886;50.082;8.222;2022-07-06T14:29:46;22.00;59.20
1778;DHT22;886;50.082;8.222;2022-07-06T14:32:13;22.00;60.20
1778;DHT22;886;50.082;8.222;2022-07-06T14:34:40;22.00;60.70
1778;DHT22;886;50.082;8.222;2022-07-06T14:37:08;21.90;61.10
1778;DHT22;886;50.082;8.222;2022-07-06T14:39:39;22.00;60.80
1778;DHT22;886;50.082;8.222;2022-07-06T14:42:07;21.90;60.40
1778;DHT22;886;50.082;8.222;2022-07-06T14:44:34;21.90;60.70
1778;DHT22;886;50.082;8.222;2022-07-06T14:47:01;21.90;60.10
1778;DHT22;886;50.082;8.222;2022-07-06T14:49:28;21.80;60.00
1778;DHT22;886;50.082;8.222;2022-07-06T14:51:58;21.70;60.00
1778;DHT22;886;50.082;8.222;2022-07-06T14:54:26;21.70;60.20
1778;DHT22;886;50.082;8.222;2022-07-06T14:56:54;21.70;60.30
1778;DHT22;886;50.082;8.222;2022-07-06T14:59:21;21.70;60.20
1778;DHT22;886;50.082;8.222;2022-07-06T15:01:54;21.70;60.10
1778;DHT22;886;50.082;8.222;2022-07-06T15:04:22;21.80;59.70
1778;DHT22;886;50.082;8.222;2022-07-06T15:06:50;21.80;59.50
1778;DHT22;886;50.082;8.222;2022-07-06T15:09:22;21.70;59.20
1778;DHT22;886;50.082;8.222;2022-07-06T15:11:59;21.80;59.50
1778;DHT22;886;50.082;8.222;2022-07-06T15:14:32;21.80;59.70
1778;DHT22;886;50.082;8.222;2022-07-06T15:16:59;21.80;59.70
1778;DHT22;886;50.082;8.222;2022-07-06T15:19:26;21.80;59.60
1778;DHT22;886;50.082;8.222;2022-07-06T15:22:00;21.80;59.80
1778;DHT22;886;50.082;8.222;2022-07-06T15:24:30;21.80;59.50
1778;DHT22;886;50.082;8.222;2022-07-06T15:27:03;21.80;60.10
1778;DHT22;886;50.082;8.222;2022-07-06T15:29:31;21.80;60.90
1778;DHT22;886;50.082;8.222;2022-07-06T15:32:00;21.80;60.60
1778;DHT22;886;50.082;8.222;2022-07-06T15:34:30;21.90;61.00
1778;DHT22;886;50.082;8.222;2022-07-06T15:36:57;21.90;60.50
1778;DHT22;886;50.082;8.222;2022-07-06T15:39:24;21.90;60.80
1778;DHT22;886;50.082;8.222;2022-07-06T15:41:51;22.00;61.30
1778;DHT22;886;50.082;8.222;2022-07-06T15:44:20;21.90;60.90
1778;DHT22;886;50.082;8.222;2022-07-06T15:46:47;22.00;60.90
1778;DHT22;886;50.082;8.222;2022-07-06T15:49:16;21.90;60.60
1778;DHT22;886;50.082;8.222;2022-07-06T15:51:44;21.80;60.80
1778;DHT22;886;50.082;8.222;2022-07-06T15:54:12;21.80;61.40
1778;DHT22;886;50.082;8.222;2022-07-06T15:56:41;21.70;61.20
1778;DHT22;886;50.082;8.222;2022-07-06T15:59:08;21.70;62.00
1778;DHT22;886;50.082;8.222;2022-07-06T16:01:39;21.80;60.60
1778;DHT22;886;50.082;8.222;2022-07-06T16:04:09;21.80;60.90
1778;DHT22;886;50.082;8.222;2022-07-06T16:06:37;21.70;60.80
1778;DHT22;886;50.082;8.222;2022-07-06T16:09:24;21.70;60.50
1778;DHT22;886;50.082;8.222;2022-07-06T16:11:51;21.60;60.80
1778;DHT22;886;50.082;8.222;2022-07-06T16:14:20;21.60;61.00
1778;DHT22;886;50.082;8.222;2022-07-06T16:16:48;21.60;61.10
1778;DHT22;886;50.082;8.222;2022-07-06T16:19:16;21.60;61.50
1778;DHT22;886;50.082;8.222;2022-07-06T16:21:43;21.50;61.50
1778;DHT22;886;50.082;8.222;2022-07-06T16:24:10;21.60;61.70
1778;DHT22;886;50.082;8.222;2022-07-06T16:26:37;21.60;61.20
1778;DHT22;886;50.082;8.222;2022-07-06T16:29:05;21.50;61.30
1778;DHT22;886;50.082;8.222;2022-07-06T16:31:32;21.40;61.60
1778;DHT22;886;50.082;8.222;2022-07-06T16:34:01;21.50;62.20